sensor_id;sensor_type;location;lat;lon;timestamp;P1;durP1;ratioP1;P2;durP2;ratioP2
18879;SDS011;9572;52.378;13.404;2023-04-24T00:02:01;6.80;;;5.60;;
18879;SDS011;9572;52.378;13.404;2023-04-24T00:04:28;5.70;;;5.20;;
18879;SDS011;9572;52.378;13.404;2023-04-24T00:06:56;8.40;;;5.00;;
18879;SDS011;9572;52.378;13.404;2023-04-24T00:09:26;6.13;;;4.87;;
18879;SDS011;9572;52.378;13.404;2023-04-24T00:11:53;8.63;;;5.43;;
18879;SDS011;9572;52.378;13.404;2023-04-24T00:14:21;5.50;;;4.97;;
18879;SDS011;9572;52.378;13.404;2023-04-24T00:16:48;8.47;;;5.33;;
18879;SDS011;9572;52.378;13.404;2023-04-24T00:19:14;7.10;;;5.50;;
18879;SDS011;9572;52.378;13.404;2023-04-24T00:21:42;5.90;;;5.17;;
18879;SDS011;9572;52.378;13.404;2023-04-24T00:24:08;7.33;;;5.77;;
18879;SDS011;9572;52.378;13.404;2023-04-24T00:26:37;6.83;;;5.63;;
18879;SDS011;9572;52.378;13.404;2023-04-24T00:29:04;9.00;;;5.43;;
18879;SDS011;9572;52.378;13.404;2023-04-24T00:31:31;5.50;;;5.00;;
18879;SDS011;9572;52.378;13.404;2023-04-24T00:33:59;6.20;;;5.13;;
18879;SDS011;9572;52.378;13.404;2023-04-24T00:36:26;8.03;;;5.40;;
18879;SDS011;9572;52.378;13.404;2023-04-24T00:38:53;6.00;;;5.13;;
18879;SDS011;9572;52.378;13.404;2023-04-24T00:41:20;5.87;;;5.23;;
18879;SDS011;9572;52.378;13.404;2023-04-24T00:43:49;6.87;;;5.27;;
18879;SDS011;9572;52.378;13.404;2023-04-24T00:46:16;7.67;;;5.90;;
18879;SDS011;9572;52.378;13.404;2023-04-24T00:48:43;5.57;;;4.90;;
18879;SDS011;9572;52.378;13.404;2023-04-24T00:51:10;6.70;;;5.23;;
18879;SDS011;9572;52.378;13.404;2023-04-24T00:53:37;7.23;;;5.50;;
18879;SDS011;9572;52.378;13.404;2023-04-24T00:56:04;7.57;;;5.33;;
18879;SDS011;9572;52.378;13.404;2023-04-24T00:58:32;6.30;;;5.20;;
18879;SDS011;9572;52.378;13.404;2023-04-24T01:01:00;6.03;;;5.27;;
18879;SDS011;9572;52.378;13.404;2023-04-24T01:03:32;5.83;;;5.20;;
18879;SDS011;9572;52.378;13.404;2023-04-24T01:06:02;6.43;;;5.20;;
18879;SDS011;9572;52.378;13.404;2023-04-24T01:08:30;5.93;;;5.30;;
18879;SDS011;9572;52.378;13.404;2023-04-24T01:10:57;7.47;;;5.77;;
18879;SDS011;9572;52.378;13.404;2023-04-24T01:13:24;7.13;;;4.97;;
18879;SDS011;9572;52.378;13.404;2023-04-24T01:15:51;5.53;;;5.03;;
18879;SDS011;9572;52.378;13.404;2023-04-24T01:18:19;6.10;;;5.50;;
18879;SDS011;9572;52.378;13.404;2023-04-24T01:20:46;5.03;;;4.53;;
18879;SDS011;9572;52.378;13.404;2023-04-24T01:23:19;6.33;;;5.00;;
18879;SDS011;9572;52.378;13.404;2023-04-24T01:25:46;5.77;;;4.90;;
18879;SDS011;9572;52.378;13.404;2023-04-24T01:28:14;5.80;;;4.97;;
18879;SDS011;9572;52.378;13.404;2023-04-24T01:30:41;5.77;;;5.27;;
18879;SDS011;9572;52.378;13.404;2023-04-24T01:33:08;5.93;;;4.60;;
18879;SDS011;9572;52.378;13.404;2023-04-24T01:35:35;7.60;;;5.13;;
18879;SDS011;9572;52.378;13.404;2023-04-24T01:38:02;6.50;;;4.80;;
18879;SDS011;9572;52.378;13.404;2023-04-24T01:40:32;11.00;;;4.93;;
18879;SDS011;9572;52.378;13.404;2023-04-24T01:42:58;5.00;;;4.50;;
18879;SDS011;9572;52.378;13.404;2023-04-24T01:45:25;5.13;;;4.17;;
18879;SDS011;9572;52.378;13.404;2023-04-24T01:47:52;6.63;;;4.90;;
18879;SDS011;9572;52.378;13.404;2023-04-24T01:50:19;5.10;;;4.50;;
18879;SDS011;9572;52.378;13.404;2023-04-24T01:52:46;6.93;;;4.90;;
18879;SDS011;9572;52.378;13.404;2023-04-24T01:55:13;5.20;;;4.70;;
18879;SDS011;9572;52.378;13.404;2023-04-24T01:57:41;5.10;;;4.43;;
18879;SDS011;9572;52.378;13.404;2023-04-24T02:00:08;5.23;;;4.73;;
18879;SDS011;9572;52.378;13.404;2023-04-24T02:02:37;6.37;;;5.37;;
18879;SDS011;9572;52.378;13.404;2023-04-24T02:05:05;6.10;;;5.40;;
18879;SDS011;9572;52.378;13.404;2023-04-24T02:07:33;5.83;;;5.27;;
18879;SDS011;9572;52.378;13.404;2023-04-24T02:10:00;5.30;;;4.80;;
18879;SDS011;9572;52.378;13.404;2023-04-24T02:12:26;5.80;;;4.40;;
18879;SDS011;9572;52.378;13.404;2023-04-24T02:14:55;7.57;;;5.17;;
18879;SDS011;9572;52.378;13.404;2023-04-24T02:17:22;5.70;;;5.10;;
18879;SDS011;9572;52.378;13.404;2023-04-24T02:19:49;4.83;;;4.43;;
18879;SDS011;9572;52.378;13.404;2023-04-24T02:22:15;5.20;;;4.70;;
18879;SDS011;9572;52.378;13.404;2023-04-24T02:24:42;5.10;;;4.60;;
18879;SDS011;9572;52.378;13.404;2023-04-24T02:27:09;5.33;;;4.83;;
18879;SDS011;9572;52.378;13.404;2023-04-24T02:29:37;5.93;;;5.07;;
18879;SDS011;9572;52.378;13.404;2023-04-24T02:32:05;5.30;;;4.80;;
18879;SDS011;9572;52.378;13.404;2023-04-24T02:34:32;5.37;;;4.87;;
18879;SDS011;9572;52.378;13.404;2023-04-24T02:36:58;6.53;;;5.50;;
18879;SDS011;9572;52.378;13.404;2023-04-24T02:39:25;6.13;;;5.13;;
18879;SDS011;9572;52.378;13.404;2023-04-24T02:41:52;5.53;;;4.93;;
18879;SDS011;9572;52.378;13.404;2023-04-24T02:44:19;7.53;;;5.50;;
18879;SDS011;9572;52.378;13.404;2023-04-24T02:46:46;5.67;;;5.03;;
18879;SDS011;9572;52.378;13.404;2023-04-24T02:49:15;7.20;;;5.37;;
18879;SDS011;9572;52.378;13.404;2023-04-24T02:51:41;6.13;;;5.30;;
18879;SDS011;9572;52.378;13.404;2023-04-24T02:54:08;5.77;;;5.27;;
18879;SDS011;9572;52.378;13.404;2023-04-24T02:56:36;6.07;;;5.23;;
18879;SDS011;9572;52.378;13.404;2023-04-24T02:59:02;5.73;;;4.90;;
18879;SDS011;9572;52.378;13.404;2023-04-24T03:01:29;5.43;;;4.63;;
18879;SDS011;9572;52.378;13.404;2023-04-24T03:03:56;5.60;;;5.00;;
18879;SDS011;9572;52.378;13.404;2023-04-24T03:06:25;5.60;;;4.53;;
18879;SDS011;9572;52.378;13.404;2023-04-24T03:08:52;5.63;;;5.00;;
18879;SDS011;9572;52.378;13.404;2023-04-24T03:11:19;5.97;;;5.37;;
18879;SDS011;9572;52.378;13.404;2023-04-24T03:13:46;5.80;;;5.07;;
18879;SDS011;9572;52.378;13.404;2023-04-24T03:16:13;6.10;;;5.30;;
18879;SDS011;9572;52.378;13.404;2023-04-24T03:18:40;6.20;;;5.23;;
18879;SDS011;9572;52.378;13.404;2023-04-24T03:21:06;8.33;;;5.17;;
18879;SDS011;9572;52.378;13.404;2023-04-24T03:23:35;6.57;;;5.80;;
18879;SDS011;9572;52.378;13.404;2023-04-24T03:26:02;5.37;;;4.77;;
18879;SDS011;9572;52.378;13.404;2023-04-24T03:28:29;5.33;;;4.83;;
18879;SDS011;9572;52.378;13.404;2023-04-24T03:30:56;7.10;;;5.20;;
18879;SDS011;9572;52.378;13.404;2023-04-24T03:33:22;8.10;;;5.90;;
18879;SDS011;9572;52.378;13.404;2023-04-24T03:35:49;5.37;;;4.87;;
18879;SDS011;9572;52.378;13.404;2023-04-24T03:38:16;8.33;;;5.20;;
18879;SDS011;9572;52.378;13.404;2023-04-24T03:40:44;6.80;;;5.35;;
18879;SDS011;9572;52.378;13.404;2023-04-24T03:43:11;6.13;;;5.07;;
18879;SDS011;9572;52.378;13.404;2023-04-24T03:45:38;6.60;;;5.20;;
18879;SDS011;9572;52.378;13.404;2023-04-24T03:48:05;8.13;;;5.45;;
18879;SDS011;9572;52.378;13.404;2023-04-24T03:50:32;7.23;;;5.53;;
18879;SDS011;9572;52.378;13.404;2023-04-24T03:52:59;5.40;;;4.90;;
18879;SDS011;9572;52.378;13.404;2023-04-24T03:55:26;4.97;;;4.47;;
18879;SDS011;9572;52.378;13.404;2023-04-24T03:57:54;8.60;;;5.90;;
18879;SDS011;9572;52.378;13.404;2023-04-24T04:00:21;6.20;;;5.53;;
18879;SDS011;9572;52.378;13.404;2023-04-24T04:02:48;7.97;;;5.03;;
18879;SDS011;9572;52.378;13.404;2023-04-24T04:05:15;6.22;;;4.78;;
18879;SDS011;9572;52.378;13.404;2023-04-24T04:07:42;7.67;;;5.00;;
18879;SDS011;9572;52.378;13.404;2023-04-24T04:10:09;5.60;;;5.00;;
18879;SDS011;9572;52.378;13.404;2023-04-24T04:12:36;5.17;;;4.67;;
18879;SDS011;9572;52.378;13.404;2023-04-24T04:15:04;6.20;;;5.20;;
18879;SDS011;9572;52.378;13.404;2023-04-24T04:17:32;6.70;;;4.83;;
18879;SDS011;9572;52.378;13.404;2023-04-24T04:19:59;5.00;;;4.37;;
18879;SDS011;9572;52.378;13.404;2023-04-24T04:22:26;6.05;;;5.45;;
18879;SDS011;9572;52.378;13.404;2023-04-24T04:24:53;6.55;;;5.28;;
18879;SDS011;9572;52.378;13.404;2023-04-24T04:27:20;6.30;;;5.70;;
18879;SDS011;9572;52.378;13.404;2023-04-24T04:29:47;5.80;;;4.80;;
18879;SDS011;9572;52.378;13.404;2023-04-24T04:32:15;4.95;;;4.50;;
18879;SDS011;9572;52.378;13.404;2023-04-24T04:34:42;4.50;;;4.10;;
18879;SDS011;9572;52.378;13.404;2023-04-24T04:37:10;5.60;;;4.80;;
18879;SDS011;9572;52.378;13.404;2023-04-24T04:39:37;7.13;;;4.68;;
18879;SDS011;9572;52.378;13.404;2023-04-24T04:42:04;4.22;;;3.83;;
18879;SDS011;9572;52.378;13.404;2023-04-24T04:44:31;5.97;;;3.92;;
18879;SDS011;9572;52.378;13.404;2023-04-24T04:47:00;4.38;;;3.40;;
18879;SDS011;9572;52.378;13.404;2023-04-24T04:49:31;5.30;;;4.50;;
18879;SDS011;9572;52.378;13.404;2023-04-24T04:51:59;4.90;;;4.10;;
18879;SDS011;9572;52.378;13.404;2023-04-24T04:54:26;5.18;;;3.83;;
18879;SDS011;9572;52.378;13.404;2023-04-24T04:56:52;5.68;;;3.47;;
18879;SDS011;9572;52.378;13.404;2023-04-24T04:59:19;6.00;;;3.30;;
18879;SDS011;9572;52.378;13.404;2023-04-24T05:01:46;3.63;;;3.20;;
18879;SDS011;9572;52.378;13.404;2023-04-24T05:04:13;6.78;;;3.40;;
18879;SDS011;9572;52.378;13.404;2023-04-24T05:06:41;4.45;;;3.17;;
18879;SDS011;9572;52.378;13.404;2023-04-24T05:09:08;5.77;;;3.27;;
18879;SDS011;9572;52.378;13.404;2023-04-24T05:11:35;3.60;;;3.30;;
18879;SDS011;9572;52.378;13.404;2023-04-24T05:14:02;4.05;;;3.35;;
18879;SDS011;9572;52.378;13.404;2023-04-24T05:16:29;3.97;;;3.27;;
18879;SDS011;9572;52.378;13.404;2023-04-24T05:18:56;3.97;;;3.10;;
18879;SDS011;9572;52.378;13.404;2023-04-24T05:21:23;2.92;;;2.72;;
18879;SDS011;9572;52.378;13.404;2023-04-24T05:23:51;3.42;;;3.00;;
18879;SDS011;9572;52.378;13.404;2023-04-24T05:26:18;2.85;;;2.60;;
18879;SDS011;9572;52.378;13.404;2023-04-24T05:28:45;2.97;;;2.63;;
18879;SDS011;9572;52.378;13.404;2023-04-24T05:31:12;2.55;;;2.35;;
18879;SDS011;9572;52.378;13.404;2023-04-24T05:33:39;4.50;;;3.00;;
18879;SDS011;9572;52.378;13.404;2023-04-24T05:36:06;4.13;;;3.03;;
18879;SDS011;9572;52.378;13.404;2023-04-24T05:38:33;4.82;;;3.00;;
18879;SDS011;9572;52.378;13.404;2023-04-24T05:41:01;5.20;;;2.83;;
18879;SDS011;9572;52.378;13.404;2023-04-24T05:43:28;4.90;;;2.40;;
18879;SDS011;9572;52.378;13.404;2023-04-24T05:45:55;3.05;;;2.60;;
18879;SDS011;9572;52.378;13.404;2023-04-24T05:48:22;2.85;;;2.30;;
18879;SDS011;9572;52.378;13.404;2023-04-24T05:50:49;2.60;;;2.40;;
18879;SDS011;9572;52.378;13.404;2023-04-24T05:53:17;2.78;;;2.42;;
18879;SDS011;9572;52.378;13.404;2023-04-24T05:55:44;3.53;;;2.60;;
18879;SDS011;9572;52.378;13.404;2023-04-24T05:58:13;2.83;;;2.47;;
18879;SDS011;9572;52.378;13.404;2023-04-24T06:00:40;2.42;;;2.22;;
18879;SDS011;9572;52.378;13.404;2023-04-24T06:03:08;4.88;;;2.50;;
18879;SDS011;9572;52.378;13.404;2023-04-24T06:05:35;3.05;;;2.28;;
18879;SDS011;9572;52.378;13.404;2023-04-24T06:08:02;3.67;;;2.20;;
18879;SDS011;9572;52.378;13.404;2023-04-24T06:10:29;3.20;;;2.17;;
18879;SDS011;9572;52.378;13.404;2023-04-24T06:12:55;2.35;;;2.00;;
18879;SDS011;9572;52.378;13.404;2023-04-24T06:15:27;1.92;;;1.75;;
18879;SDS011;9572;52.378;13.404;2023-04-24T06:17:55;2.58;;;1.88;;
18879;SDS011;9572;52.378;13.404;2023-04-24T06:20:22;4.57;;;1.80;;
18879;SDS011;9572;52.378;13.404;2023-04-24T06:22:50;1.80;;;1.50;;
18879;SDS011;9572;52.378;13.404;2023-04-24T06:25:17;4.63;;;1.42;;
18879;SDS011;9572;52.378;13.404;2023-04-24T06:27:44;1.38;;;1.27;;
18879;SDS011;9572;52.378;13.404;2023-04-24T06:30:11;2.55;;;1.55;;
18879;SDS011;9572;52.378;13.404;2023-04-24T06:32:40;4.53;;;1.33;;
18879;SDS011;9572;52.378;13.404;2023-04-24T06:35:07;2.80;;;1.30;;
18879;SDS011;9572;52.378;13.404;2023-04-24T06:37:35;1.63;;;1.38;;
18879;SDS011;9572;52.378;13.404;2023-04-24T06:40:02;1.17;;;1.00;;
18879;SDS011;9572;52.378;13.404;2023-04-24T06:42:29;2.33;;;1.20;;
18879;SDS011;9572;52.378;13.404;2023-04-24T06:44:56;3.95;;;1.10;;
18879;SDS011;9572;52.378;13.404;2023-04-24T06:47:22;1.90;;;1.15;;
18879;SDS011;9572;52.378;13.404;2023-04-24T06:49:51;2.05;;;1.15;;
18879;SDS011;9572;52.378;13.404;2023-04-24T06:52:18;1.50;;;1.02;;
18879;SDS011;9572;52.378;13.404;2023-04-24T06:54:45;2.10;;;1.10;;
18879;SDS011;9572;52.378;13.404;2023-04-24T06:57:12;1.17;;;0.88;;
18879;SDS011;9572;52.378;13.404;2023-04-24T06:59:41;1.10;;;1.00;;
18879;SDS011;9572;52.378;13.404;2023-04-24T07:02:08;2.00;;;1.05;;
18879;SDS011;9572;52.378;13.404;2023-04-24T07:04:34;2.65;;;1.00;;
18879;SDS011;9572;52.378;13.404;2023-04-24T07:07:03;2.55;;;1.00;;
18879;SDS011;9572;52.378;13.404;2023-04-24T07:09:31;0.95;;;0.60;;
18879;SDS011;9572;52.378;13.404;2023-04-24T07:12:00;0.70;;;0.70;;
18879;SDS011;9572;52.378;13.404;2023-04-24T07:14:27;1.23;;;0.93;;
18879;SDS011;9572;52.378;13.404;2023-04-24T07:16:54;1.23;;;0.93;;
18879;SDS011;9572;52.378;13.404;2023-04-24T07:19:22;1.00;;;0.70;;
18879;SDS011;9572;52.378;13.404;2023-04-24T07:21:49;2.55;;;0.90;;
18879;SDS011;9572;52.378;13.404;2023-04-24T07:24:17;3.63;;;0.80;;
18879;SDS011;9572;52.378;13.404;2023-04-24T07:26:44;2.17;;;0.80;;
18879;SDS011;9572;52.378;13.404;2023-04-24T07:29:11;2.30;;;0.90;;
18879;SDS011;9572;52.378;13.404;2023-04-24T07:31:39;0.95;;;0.80;;
18879;SDS011;9572;52.378;13.404;2023-04-24T07:34:06;2.25;;;0.90;;
18879;SDS011;9572;52.378;13.404;2023-04-24T07:36:33;2.35;;;0.85;;
18879;SDS011;9572;52.378;13.404;2023-04-24T07:39:00;1.08;;;0.70;;
18879;SDS011;9572;52.378;13.404;2023-04-24T07:41:29;2.17;;;0.73;;
18879;SDS011;9572;52.378;13.404;2023-04-24T07:43:55;2.47;;;1.00;;
18879;SDS011;9572;52.378;13.404;2023-04-24T07:46:22;1.27;;;0.50;;
18879;SDS011;9572;52.378;13.404;2023-04-24T07:48:49;0.85;;;0.47;;
18879;SDS011;9572;52.378;13.404;2023-04-24T07:51:16;1.05;;;0.68;;
18879;SDS011;9572;52.378;13.404;2023-04-24T07:53:43;0.70;;;0.60;;
18879;SDS011;9572;52.378;13.404;2023-04-24T07:56:10;1.27;;;0.60;;
18879;SDS011;9572;52.378;13.404;2023-04-24T07:58:38;2.80;;;0.70;;
18879;SDS011;9572;52.378;13.404;2023-04-24T08:01:05;1.48;;;0.68;;
18879;SDS011;9572;52.378;13.404;2023-04-24T08:03:32;1.17;;;0.63;;
18879;SDS011;9572;52.378;13.404;2023-04-24T08:05:59;2.20;;;0.50;;
18879;SDS011;9572;52.378;13.404;2023-04-24T08:08:26;1.30;;;0.73;;
18879;SDS011;9572;52.378;13.404;2023-04-24T08:10:54;0.57;;;0.50;;
18879;SDS011;9572;52.378;13.404;2023-04-24T08:13:21;0.30;;;0.30;;
18879;SDS011;9572;52.378;13.404;2023-04-24T08:15:49;1.85;;;0.32;;
18879;SDS011;9572;52.378;13.404;2023-04-24T08:18:16;0.70;;;0.43;;
18879;SDS011;9572;52.378;13.404;2023-04-24T08:20:43;0.80;;;0.50;;
18879;SDS011;9572;52.378;13.404;2023-04-24T08:23:10;1.65;;;0.45;;
18879;SDS011;9572;52.378;13.404;2023-04-24T08:25:37;1.02;;;0.50;;
18879;SDS011;9572;52.378;13.404;2023-04-24T08:28:05;0.60;;;0.40;;
18879;SDS011;9572;52.378;13.404;2023-04-24T08:30:32;1.40;;;0.63;;
18879;SDS011;9572;52.378;13.404;2023-04-24T08:33:01;0.47;;;0.40;;
18879;SDS011;9572;52.378;13.404;2023-04-24T08:35:28;0.73;;;0.40;;
18879;SDS011;9572;52.378;13.404;2023-04-24T08:37:54;1.20;;;0.40;;
18879;SDS011;9572;52.378;13.404;2023-04-24T08:40:22;0.90;;;0.50;;
18879;SDS011;9572;52.378;13.404;2023-04-24T08:42:55;0.45;;;0.45;;
18879;SDS011;9572;52.378;13.404;2023-04-24T08:45:22;0.60;;;0.50;;
18879;SDS011;9572;52.378;13.404;2023-04-24T08:47:51;0.98;;;0.40;;
18879;SDS011;9572;52.378;13.404;2023-04-24T08:50:20;2.30;;;0.63;;
18879;SDS011;9572;52.378;13.404;2023-04-24T08:52:49;0.63;;;0.50;;
18879;SDS011;9572;52.378;13.404;2023-04-24T08:55:18;0.65;;;0.50;;
18879;SDS011;9572;52.378;13.404;2023-04-24T08:57:45;0.63;;;0.52;;
18879;SDS011;9572;52.378;13.404;2023-04-24T09:00:16;1.90;;;0.40;;
18879;SDS011;9572;52.378;13.404;2023-04-24T09:02:44;0.90;;;0.55;;
18879;SDS011;9572;52.378;13.404;2023-04-24T09:05:13;0.95;;;0.45;;
18879;SDS011;9572;52.378;13.404;2023-04-24T09:07:43;1.67;;;0.57;;
18879;SDS011;9572;52.378;13.404;2023-04-24T09:10:12;2.92;;;0.90;;
18879;SDS011;9572;52.378;13.404;2023-04-24T09:12:40;0.90;;;0.50;;
18879;SDS011;9572;52.378;13.404;2023-04-24T09:15:08;1.15;;;0.60;;
18879;SDS011;9572;52.378;13.404;2023-04-24T09:17:35;3.00;;;0.60;;
18879;SDS011;9572;52.378;13.404;2023-04-24T09:20:03;4.03;;;1.08;;
18879;SDS011;9572;52.378;13.404;2023-04-24T09:22:31;3.20;;;0.88;;
18879;SDS011;9572;52.378;13.404;2023-04-24T09:25:06;1.48;;;1.00;;
18879;SDS011;9572;52.378;13.404;2023-04-24T09:27:34;0.70;;;0.55;;
18879;SDS011;9572;52.378;13.404;2023-04-24T09:30:02;0.98;;;0.52;;
18879;SDS011;9572;52.378;13.404;2023-04-24T09:32:30;2.05;;;0.40;;
18879;SDS011;9572;52.378;13.404;2023-04-24T09:35:07;0.50;;;0.47;;
18879;SDS011;9572;52.378;13.404;2023-04-24T09:37:35;1.48;;;0.35;;
18879;SDS011;9572;52.378;13.404;2023-04-24T09:42:51;0.77;;;0.30;;
18879;SDS011;9572;52.378;13.404;2023-04-24T09:45:19;1.08;;;0.70;;
18879;SDS011;9572;52.378;13.404;2023-04-24T09:47:50;3.08;;;1.02;;
18879;SDS011;9572;52.378;13.404;2023-04-24T09:50:18;2.15;;;0.50;;
18879;SDS011;9572;52.378;13.404;2023-04-24T09:52:45;0.68;;;0.43;;
18879;SDS011;9572;52.378;13.404;2023-04-24T09:55:14;1.08;;;0.50;;
18879;SDS011;9572;52.378;13.404;2023-04-24T09:57:48;0.65;;;0.40;;
18879;SDS011;9572;52.378;13.404;2023-04-24T10:00:23;1.02;;;0.50;;
18879;SDS011;9572;52.378;13.404;2023-04-24T10:02:55;1.00;;;0.55;;
18879;SDS011;9572;52.378;13.404;2023-04-24T10:05:23;0.90;;;0.50;;
18879;SDS011;9572;52.378;13.404;2023-04-24T10:07:51;1.45;;;0.52;;
18879;SDS011;9572;52.378;13.404;2023-04-24T10:10:22;1.00;;;0.50;;
18879;SDS011;9572;52.378;13.404;2023-04-24T10:12:50;0.77;;;0.50;;
18879;SDS011;9572;52.378;13.404;2023-04-24T10:15:18;1.00;;;0.50;;
18879;SDS011;9572;52.378;13.404;2023-04-24T10:17:46;1.50;;;1.17;;
18879;SDS011;9572;52.378;13.404;2023-04-24T10:20:17;2.30;;;0.50;;
18879;SDS011;9572;52.378;13.404;2023-04-24T10:22:46;2.00;;;0.70;;
18879;SDS011;9572;52.378;13.404;2023-04-24T10:25:16;1.42;;;0.65;;
18879;SDS011;9572;52.378;13.404;2023-04-24T10:27:44;4.13;;;0.93;;
18879;SDS011;9572;52.378;13.404;2023-04-24T10:30:14;2.45;;;0.90;;
18879;SDS011;9572;52.378;13.404;2023-04-24T10:32:42;1.30;;;0.60;;
18879;SDS011;9572;52.378;13.404;2023-04-24T10:35:10;1.05;;;0.70;;
18879;SDS011;9572;52.378;13.404;2023-04-24T10:37:40;3.30;;;0.65;;
18879;SDS011;9572;52.378;13.404;2023-04-24T10:40:11;1.05;;;0.50;;
18879;SDS011;9572;52.378;13.404;2023-04-24T10:42:47;0.40;;;0.40;;
18879;SDS011;9572;52.378;13.404;2023-04-24T10:45:18;2.80;;;0.60;;
18879;SDS011;9572;52.378;13.404;2023-04-24T10:47:53;2.67;;;0.80;;
18879;SDS011;9572;52.378;13.404;2023-04-24T10:50:26;0.90;;;0.60;;
18879;SDS011;9572;52.378;13.404;2023-04-24T10:52:55;2.03;;;0.70;;
18879;SDS011;9572;52.378;13.404;2023-04-24T10:55:41;0.40;;;0.40;;
18879;SDS011;9572;52.378;13.404;2023-04-24T10:58:10;0.80;;;0.50;;
18879;SDS011;9572;52.378;13.404;2023-04-24T11:00:39;1.75;;;0.60;;
18879;SDS011;9572;52.378;13.404;2023-04-24T11:03:22;0.95;;;0.50;;
18879;SDS011;9572;52.378;13.404;2023-04-24T11:06:01;1.40;;;0.80;;
18879;SDS011;9572;52.378;13.404;2023-04-24T11:08:29;1.75;;;0.50;;
18879;SDS011;9572;52.378;13.404;2023-04-24T11:10:59;0.60;;;0.50;;
18879;SDS011;9572;52.378;13.404;2023-04-24T11:13:32;1.60;;;0.70;;
18879;SDS011;9572;52.378;13.404;2023-04-24T11:16:38;1.10;;;0.60;;
18879;SDS011;9572;52.378;13.404;2023-04-24T11:19:09;1.52;;;1.00;;
18879;SDS011;9572;52.378;13.404;2023-04-24T11:21:54;2.35;;;0.70;;
18879;SDS011;9572;52.378;13.404;2023-04-24T11:24:27;3.15;;;1.15;;
18879;SDS011;9572;52.378;13.404;2023-04-24T11:26:57;2.65;;;0.80;;
18879;SDS011;9572;52.378;13.404;2023-04-24T11:29:39;2.50;;;0.70;;
18879;SDS011;9572;52.378;13.404;2023-04-24T11:32:18;1.23;;;0.68;;
18879;SDS011;9572;52.378;13.404;2023-04-24T11:34:50;1.13;;;0.60;;
18879;SDS011;9572;52.378;13.404;2023-04-24T11:37:18;0.95;;;0.60;;
18879;SDS011;9572;52.378;13.404;2023-04-24T11:39:45;0.55;;;0.50;;
18879;SDS011;9572;52.378;13.404;2023-04-24T11:42:13;1.42;;;0.60;;
18879;SDS011;9572;52.378;13.404;2023-04-24T11:44:41;1.42;;;0.75;;
18879;SDS011;9572;52.378;13.404;2023-04-24T11:47:09;0.55;;;0.52;;
18879;SDS011;9572;52.378;13.404;2023-04-24T11:49:37;1.92;;;0.57;;
18879;SDS011;9572;52.378;13.404;2023-04-24T11:52:04;1.05;;;0.70;;
18879;SDS011;9572;52.378;13.404;2023-04-24T11:54:32;2.50;;;0.70;;
18879;SDS011;9572;52.378;13.404;2023-04-24T11:56:59;1.27;;;0.63;;
18879;SDS011;9572;52.378;13.404;2023-04-24T11:59:29;1.20;;;0.70;;
18879;SDS011;9572;52.378;13.404;2023-04-24T12:02:01;5.18;;;0.88;;
18879;SDS011;9572;52.378;13.404;2023-04-24T12:04:37;1.50;;;0.50;;
18879;SDS011;9572;52.378;13.404;2023-04-24T12:07:06;2.05;;;1.00;;
18879;SDS011;9572;52.378;13.404;2023-04-24T12:09:40;1.40;;;0.70;;
18879;SDS011;9572;52.378;13.404;2023-04-24T12:12:08;0.80;;;0.80;;
18879;SDS011;9572;52.378;13.404;2023-04-24T12:14:41;1.33;;;0.60;;
18879;SDS011;9572;52.378;13.404;2023-04-24T12:17:09;0.88;;;0.70;;
18879;SDS011;9572;52.378;13.404;2023-04-24T12:19:36;4.43;;;3.17;;
18879;SDS011;9572;52.378;13.404;2023-04-24T12:22:05;23.15;;;14.25;;
18879;SDS011;9572;52.378;13.404;2023-04-24T12:24:33;1.08;;;0.93;;
18879;SDS011;9572;52.378;13.404;2023-04-24T12:26:59;0.98;;;0.68;;
18879;SDS011;9572;52.378;13.404;2023-04-24T12:29:27;0.40;;;0.30;;
18879;SDS011;9572;52.378;13.404;2023-04-24T12:31:54;0.65;;;0.50;;
18879;SDS011;9572;52.378;13.404;2023-04-24T12:34:22;2.20;;;0.60;;
18879;SDS011;9572;52.378;13.404;2023-04-24T12:36:50;0.93;;;0.43;;
18879;SDS011;9572;52.378;13.404;2023-04-24T12:39:19;5.13;;;0.60;;
18879;SDS011;9572;52.378;13.404;2023-04-24T12:41:54;0.85;;;0.50;;
18879;SDS011;9572;52.378;13.404;2023-04-24T12:44:29;0.50;;;0.50;;
18879;SDS011;9572;52.378;13.404;2023-04-24T12:46:59;1.75;;;0.38;;
18879;SDS011;9572;52.378;13.404;2023-04-24T12:49:26;1.67;;;0.57;;
18879;SDS011;9572;52.378;13.404;2023-04-24T12:51:54;0.73;;;0.60;;
18879;SDS011;9572;52.378;13.404;2023-04-24T12:54:22;1.48;;;0.55;;
18879;SDS011;9572;52.378;13.404;2023-04-24T12:56:49;1.05;;;0.40;;
18879;SDS011;9572;52.378;13.404;2023-04-24T12:59:16;7.90;;;0.60;;
18879;SDS011;9572;52.378;13.404;2023-04-24T13:01:43;1.15;;;0.38;;
18879;SDS011;9572;52.378;13.404;2023-04-24T13:04:09;0.52;;;0.35;;
18879;SDS011;9572;52.378;13.404;2023-04-24T13:06:36;1.00;;;0.50;;
18879;SDS011;9572;52.378;13.404;2023-04-24T13:09:03;1.85;;;0.60;;
18879;SDS011;9572;52.378;13.404;2023-04-24T13:11:32;0.63;;;0.40;;
18879;SDS011;9572;52.378;13.404;2023-04-24T13:13:58;0.60;;;0.38;;
18879;SDS011;9572;52.378;13.404;2023-04-24T13:16:25;0.47;;;0.40;;
18879;SDS011;9572;52.378;13.404;2023-04-24T13:18:52;1.65;;;0.40;;
18879;SDS011;9572;52.378;13.404;2023-04-24T13:21:19;0.75;;;0.30;;
18879;SDS011;9572;52.378;13.404;2023-04-24T13:23:46;3.55;;;0.52;;
18879;SDS011;9572;52.378;13.404;2023-04-24T13:26:13;0.30;;;0.30;;
18879;SDS011;9572;52.378;13.404;2023-04-24T13:28:41;1.75;;;0.60;;
18879;SDS011;9572;52.378;13.404;2023-04-24T13:31:09;0.85;;;0.52;;
18879;SDS011;9572;52.378;13.404;2023-04-24T13:33:36;0.77;;;0.50;;
18879;SDS011;9572;52.378;13.404;2023-04-24T13:36:03;0.82;;;0.50;;
18879;SDS011;9572;52.378;13.404;2023-04-24T13:38:30;2.60;;;0.47;;
18879;SDS011;9572;52.378;13.404;2023-04-24T13:40:57;0.65;;;0.55;;
18879;SDS011;9572;52.378;13.404;2023-04-24T13:43:23;2.80;;;0.50;;
18879;SDS011;9572;52.378;13.404;2023-04-24T13:45:52;0.55;;;0.50;;
18879;SDS011;9572;52.378;13.404;2023-04-24T13:48:19;0.63;;;0.40;;
18879;SDS011;9572;52.378;13.404;2023-04-24T13:50:46;2.55;;;0.40;;
18879;SDS011;9572;52.378;13.404;2023-04-24T13:53:14;1.98;;;0.60;;
18879;SDS011;9572;52.378;13.404;2023-04-24T13:55:41;0.68;;;0.60;;
18879;SDS011;9572;52.378;13.404;2023-04-24T13:58:08;0.98;;;0.47;;
18879;SDS011;9572;52.378;13.404;2023-04-24T14:00:35;1.33;;;0.50;;
18879;SDS011;9572;52.378;13.404;2023-04-24T14:03:03;2.03;;;0.60;;
18879;SDS011;9572;52.378;13.404;2023-04-24T14:05:30;0.60;;;0.47;;
18879;SDS011;9572;52.378;13.404;2023-04-24T14:07:57;0.85;;;0.65;;
18879;SDS011;9572;52.378;13.404;2023-04-24T14:10:24;3.92;;;0.70;;
18879;SDS011;9572;52.378;13.404;2023-04-24T14:12:52;5.35;;;0.52;;
18879;SDS011;9572;52.378;13.404;2023-04-24T14:15:19;0.68;;;0.60;;
18879;SDS011;9572;52.378;13.404;2023-04-24T14:17:47;1.55;;;0.60;;
18879;SDS011;9572;52.378;13.404;2023-04-24T14:20:15;2.13;;;0.70;;
18879;SDS011;9572;52.378;13.404;2023-04-24T14:22:42;0.50;;;0.50;;
18879;SDS011;9572;52.378;13.404;2023-04-24T14:25:09;1.13;;;0.60;;
18879;SDS011;9572;52.378;13.404;2023-04-24T14:27:36;4.00;;;0.80;;
18879;SDS011;9572;52.378;13.404;2023-04-24T14:30:05;2.15;;;0.70;;
18879;SDS011;9572;52.378;13.404;2023-04-24T14:32:33;2.30;;;0.70;;
18879;SDS011;9572;52.378;13.404;2023-04-24T14:35:00;1.35;;;0.68;;
18879;SDS011;9572;52.378;13.404;2023-04-24T14:37:29;1.05;;;0.57;;
18879;SDS011;9572;52.378;13.404;2023-04-24T14:39:56;1.38;;;0.50;;
18879;SDS011;9572;52.378;13.404;2023-04-24T14:42:23;2.05;;;0.60;;
18879;SDS011;9572;52.378;13.404;2023-04-24T14:44:50;2.72;;;0.68;;
18879;SDS011;9572;52.378;13.404;2023-04-24T14:47:17;4.22;;;0.60;;
18879;SDS011;9572;52.378;13.404;2023-04-24T14:49:46;3.58;;;0.70;;
18879;SDS011;9572;52.378;13.404;2023-04-24T14:52:13;0.70;;;0.70;;
18879;SDS011;9572;52.378;13.404;2023-04-24T14:54:42;1.48;;;0.60;;
18879;SDS011;9572;52.378;13.404;2023-04-24T14:57:09;0.60;;;0.60;;